sensor_id;sensor_type;location;lat;lon;timestamp;P1;durP1;ratioP1;P2;durP2;ratioP2
30299;SDS011;17110;52.602;12.998;2023-02-15T00:00:30;55.40;;;34.87;;
30299;SDS011;17110;52.602;12.998;2023-02-15T00:02:55;56.53;;;34.60;;
30299;SDS011;17110;52.602;12.998;2023-02-15T00:05:21;55.10;;;35.43;;
30299;SDS011;17110;52.602;12.998;2023-02-15T00:07:47;49.00;;;33.13;;
30299;SDS011;17110;52.602;12.998;2023-02-15T00:10:13;54.97;;;35.17;;
30299;SDS011;17110;52.602;12.998;2023-02-15T00:12:39;64.33;;;39.30;;
30299;SDS011;17110;52.602;12.998;2023-02-15T00:15:06;65.43;;;39.38;;
30299;SDS011;17110;52.602;12.998;2023-02-15T00:17:32;61.30;;;37.75;;
30299;SDS011;17110;52.602;12.998;2023-02-15T00:19:57;63.35;;;39.08;;
30299;SDS011;17110;52.602;12.998;2023-02-15T00:22:23;58.92;;;36.70;;
30299;SDS011;17110;52.602;12.998;2023-02-15T00:24:53;65.25;;;39.40;;
30299;SDS011;17110;52.602;12.998;2023-02-15T00:27:19;59.30;;;36.97;;
30299;SDS011;17110;52.602;12.998;2023-02-15T00:29:46;63.30;;;39.97;;
30299;SDS011;17110;52.602;12.998;2023-02-15T00:32:11;57.35;;;36.53;;
30299;SDS011;17110;52.602;12.998;2023-02-15T00:34:37;55.10;;;36.57;;
30299;SDS011;17110;52.602;12.998;2023-02-15T00:37:03;58.40;;;36.70;;
30299;SDS011;17110;52.602;12.998;2023-02-15T00:39:28;61.53;;;38.13;;
30299;SDS011;17110;52.602;12.998;2023-02-15T00:41:54;64.47;;;38.03;;
30299;SDS011;17110;52.602;12.998;2023-02-15T00:44:20;63.42;;;38.65;;
30299;SDS011;17110;52.602;12.998;2023-02-15T00:46:46;63.40;;;39.17;;
30299;SDS011;17110;52.602;12.998;2023-02-15T00:49:11;70.40;;;40.13;;
30299;SDS011;17110;52.602;12.998;2023-02-15T00:51:37;71.33;;;43.07;;
30299;SDS011;17110;52.602;12.998;2023-02-15T00:54:04;75.53;;;45.63;;
30299;SDS011;17110;52.602;12.998;2023-02-15T00:56:30;70.68;;;44.70;;
30299;SDS011;17110;52.602;12.998;2023-02-15T00:58:56;67.32;;;41.78;;
30299;SDS011;17110;52.602;12.998;2023-02-15T01:01:22;69.35;;;43.08;;
30299;SDS011;17110;52.602;12.998;2023-02-15T01:03:48;63.63;;;40.17;;
30299;SDS011;17110;52.602;12.998;2023-02-15T01:06:14;63.30;;;39.97;;
30299;SDS011;17110;52.602;12.998;2023-02-15T01:08:41;63.95;;;41.22;;
30299;SDS011;17110;52.602;12.998;2023-02-15T01:13:42;66.50;;;42.00;;
30299;SDS011;17110;52.602;12.998;2023-02-15T01:16:08;65.38;;;42.40;;
30299;SDS011;17110;52.602;12.998;2023-02-15T01:18:34;67.30;;;42.95;;
30299;SDS011;17110;52.602;12.998;2023-02-15T01:21:00;66.38;;;41.80;;
30299;SDS011;17110;52.602;12.998;2023-02-15T01:23:38;64.03;;;40.40;;
30299;SDS011;17110;52.602;12.998;2023-02-15T01:26:04;62.10;;;38.92;;
30299;SDS011;17110;52.602;12.998;2023-02-15T01:28:30;62.43;;;39.97;;
30299;SDS011;17110;52.602;12.998;2023-02-15T01:30:57;64.03;;;41.00;;
30299;SDS011;17110;52.602;12.998;2023-02-15T01:33:24;70.17;;;43.10;;
30299;SDS011;17110;52.602;12.998;2023-02-15T01:35:57;81.57;;;47.05;;
30299;SDS011;17110;52.602;12.998;2023-02-15T01:38:24;75.05;;;45.17;;
30299;SDS011;17110;52.602;12.998;2023-02-15T01:40:51;74.77;;;43.47;;
30299;SDS011;17110;52.602;12.998;2023-02-15T01:43:19;70.63;;;41.90;;
30299;SDS011;17110;52.602;12.998;2023-02-15T01:45:46;68.25;;;42.22;;
30299;SDS011;17110;52.602;12.998;2023-02-15T01:50:54;71.55;;;42.25;;
30299;SDS011;17110;52.602;12.998;2023-02-15T01:53:41;70.00;;;41.60;;
30299;SDS011;17110;52.602;12.998;2023-02-15T01:56:17;68.50;;;41.10;;
30299;SDS011;17110;52.602;12.998;2023-02-15T01:58:47;60.78;;;39.08;;
30299;SDS011;17110;52.602;12.998;2023-02-15T02:01:17;65.00;;;39.97;;
30299;SDS011;17110;52.602;12.998;2023-02-15T02:06:45;64.72;;;40.47;;
30299;SDS011;17110;52.602;12.998;2023-02-15T02:09:19;57.65;;;37.80;;
30299;SDS011;17110;52.602;12.998;2023-02-15T02:11:46;63.33;;;38.75;;
30299;SDS011;17110;52.602;12.998;2023-02-15T02:14:13;59.58;;;37.00;;
30299;SDS011;17110;52.602;12.998;2023-02-15T02:35:16;63.30;;;38.25;;
30299;SDS011;17110;52.602;12.998;2023-02-15T02:43:21;57.65;;;37.75;;
30299;SDS011;17110;52.602;12.998;2023-02-15T02:46:10;60.53;;;38.25;;
30299;SDS011;17110;52.602;12.998;2023-02-15T02:48:43;54.25;;;34.92;;
30299;SDS011;17110;52.602;12.998;2023-02-15T02:51:09;53.65;;;35.78;;
30299;SDS011;17110;52.602;12.998;2023-02-15T02:53:35;58.15;;;35.42;;
30299;SDS011;17110;52.602;12.998;2023-02-15T03:01:46;63.75;;;38.75;;
30299;SDS011;17110;52.602;12.998;2023-02-15T03:04:19;58.95;;;38.63;;
30299;SDS011;17110;52.602;12.998;2023-02-15T03:06:58;64.60;;;39.60;;
30299;SDS011;17110;52.602;12.998;2023-02-15T03:12:13;64.35;;;39.92;;
30299;SDS011;17110;52.602;12.998;2023-02-15T03:14:42;76.38;;;44.20;;
30299;SDS011;17110;52.602;12.998;2023-02-15T03:17:11;69.18;;;42.33;;
30299;SDS011;17110;52.602;12.998;2023-02-15T03:19:38;65.90;;;41.70;;
30299;SDS011;17110;52.602;12.998;2023-02-15T03:22:10;62.30;;;38.53;;
30299;SDS011;17110;52.602;12.998;2023-02-15T03:24:50;59.75;;;38.90;;
30299;SDS011;17110;52.602;12.998;2023-02-15T03:27:34;62.63;;;39.13;;
30299;SDS011;17110;52.602;12.998;2023-02-15T03:30:04;60.20;;;37.23;;
30299;SDS011;17110;52.602;12.998;2023-02-15T03:32:32;60.20;;;37.50;;
30299;SDS011;17110;52.602;12.998;2023-02-15T03:34:59;58.80;;;36.63;;
30299;SDS011;17110;52.602;12.998;2023-02-15T03:37:39;68.97;;;39.72;;
30299;SDS011;17110;52.602;12.998;2023-02-15T03:40:48;61.50;;;38.67;;
30299;SDS011;17110;52.602;12.998;2023-02-15T03:43:21;63.85;;;39.45;;
30299;SDS011;17110;52.602;12.998;2023-02-15T03:45:54;70.78;;;42.00;;
30299;SDS011;17110;52.602;12.998;2023-02-15T03:48:56;70.03;;;41.15;;
30299;SDS011;17110;52.602;12.998;2023-02-15T03:51:18;76.80;;;44.90;;
30299;SDS011;17110;52.602;12.998;2023-02-15T03:54:09;78.82;;;43.83;;
30299;SDS011;17110;52.602;12.998;2023-02-15T03:57:15;74.75;;;44.90;;
30299;SDS011;17110;52.602;12.998;2023-02-15T04:00:15;77.82;;;45.30;;
30299;SDS011;17110;52.602;12.998;2023-02-15T04:05:40;79.75;;;45.00;;
30299;SDS011;17110;52.602;12.998;2023-02-15T04:08:07;84.37;;;46.60;;
30299;SDS011;17110;52.602;12.998;2023-02-15T04:10:34;81.88;;;46.67;;
30299;SDS011;17110;52.602;12.998;2023-02-15T04:13:31;78.93;;;44.22;;
30299;SDS011;17110;52.602;12.998;2023-02-15T04:15:57;82.53;;;45.33;;
30299;SDS011;17110;52.602;12.998;2023-02-15T04:18:29;81.82;;;46.42;;
30299;SDS011;17110;52.602;12.998;2023-02-15T04:21:20;78.03;;;47.05;;
30299;SDS011;17110;52.602;12.998;2023-02-15T04:24:06;87.00;;;47.88;;
30299;SDS011;17110;52.602;12.998;2023-02-15T04:26:51;87.22;;;47.58;;
30299;SDS011;17110;52.602;12.998;2023-02-15T04:29:20;77.20;;;45.15;;
30299;SDS011;17110;52.602;12.998;2023-02-15T04:31:47;77.32;;;44.45;;
30299;SDS011;17110;52.602;12.998;2023-02-15T04:34:13;82.00;;;47.13;;
30299;SDS011;17110;52.602;12.998;2023-02-15T04:36:39;81.30;;;45.42;;
30299;SDS011;17110;52.602;12.998;2023-02-15T04:39:06;77.05;;;44.75;;
30299;SDS011;17110;52.602;12.998;2023-02-15T04:41:32;72.80;;;43.50;;
30299;SDS011;17110;52.602;12.998;2023-02-15T04:43:59;72.93;;;43.85;;
30299;SDS011;17110;52.602;12.998;2023-02-15T04:46:26;69.68;;;41.65;;
30299;SDS011;17110;52.602;12.998;2023-02-15T04:48:52;72.47;;;43.60;;
30299;SDS011;17110;52.602;12.998;2023-02-15T04:51:18;74.22;;;42.60;;
30299;SDS011;17110;52.602;12.998;2023-02-15T04:53:44;69.72;;;41.42;;
30299;SDS011;17110;52.602;12.998;2023-02-15T04:56:09;73.57;;;42.40;;
30299;SDS011;17110;52.602;12.998;2023-02-15T04:58:35;66.70;;;40.90;;
30299;SDS011;17110;52.602;12.998;2023-02-15T05:01:02;63.28;;;39.58;;
30299;SDS011;17110;52.602;12.998;2023-02-15T05:03:28;65.68;;;41.38;;
30299;SDS011;17110;52.602;12.998;2023-02-15T05:05:53;66.13;;;40.73;;
30299;SDS011;17110;52.602;12.998;2023-02-15T05:08:19;65.27;;;39.63;;
30299;SDS011;17110;52.602;12.998;2023-02-15T05:10:47;59.57;;;38.60;;
30299;SDS011;17110;52.602;12.998;2023-02-15T05:13:13;65.13;;;40.47;;
30299;SDS011;17110;52.602;12.998;2023-02-15T05:15:39;63.22;;;39.05;;
30299;SDS011;17110;52.602;12.998;2023-02-15T05:18:05;59.72;;;38.13;;
30299;SDS011;17110;52.602;12.998;2023-02-15T05:20:32;61.58;;;38.38;;
30299;SDS011;17110;52.602;12.998;2023-02-15T05:22:58;69.47;;;41.97;;
30299;SDS011;17110;52.602;12.998;2023-02-15T05:25:23;64.20;;;39.50;;
30299;SDS011;17110;52.602;12.998;2023-02-15T05:28:09;64.47;;;40.78;;
30299;SDS011;17110;52.602;12.998;2023-02-15T05:30:44;62.85;;;39.58;;
30299;SDS011;17110;52.602;12.998;2023-02-15T05:33:25;65.17;;;40.20;;
30299;SDS011;17110;52.602;12.998;2023-02-15T05:35:51;58.60;;;37.47;;
30299;SDS011;17110;52.602;12.998;2023-02-15T05:38:17;59.03;;;37.60;;
30299;SDS011;17110;52.602;12.998;2023-02-15T05:40:42;60.53;;;37.77;;
30299;SDS011;17110;52.602;12.998;2023-02-15T05:43:08;62.30;;;37.33;;
30299;SDS011;17110;52.602;12.998;2023-02-15T05:45:34;63.43;;;39.20;;
30299;SDS011;17110;52.602;12.998;2023-02-15T05:47:59;61.33;;;38.30;;
30299;SDS011;17110;52.602;12.998;2023-02-15T05:50:25;67.63;;;40.13;;
30299;SDS011;17110;52.602;12.998;2023-02-15T05:52:51;60.47;;;38.40;;
30299;SDS011;17110;52.602;12.998;2023-02-15T05:55:17;61.80;;;38.33;;
30299;SDS011;17110;52.602;12.998;2023-02-15T05:57:43;61.35;;;38.80;;
30299;SDS011;17110;52.602;12.998;2023-02-15T06:00:09;66.90;;;40.03;;
30299;SDS011;17110;52.602;12.998;2023-02-15T06:02:36;59.60;;;36.90;;
30299;SDS011;17110;52.602;12.998;2023-02-15T06:05:03;56.00;;;36.67;;
30299;SDS011;17110;52.602;12.998;2023-02-15T06:07:29;55.90;;;35.85;;
30299;SDS011;17110;52.602;12.998;2023-02-15T06:09:55;58.03;;;37.13;;
30299;SDS011;17110;52.602;12.998;2023-02-15T06:12:21;62.10;;;36.72;;
30299;SDS011;17110;52.602;12.998;2023-02-15T06:14:46;53.30;;;36.03;;
30299;SDS011;17110;52.602;12.998;2023-02-15T06:17:12;63.15;;;38.85;;
30299;SDS011;17110;52.602;12.998;2023-02-15T06:19:39;56.88;;;36.80;;
30299;SDS011;17110;52.602;12.998;2023-02-15T06:22:05;53.08;;;34.30;;
30299;SDS011;17110;52.602;12.998;2023-02-15T06:24:35;59.20;;;38.65;;
30299;SDS011;17110;52.602;12.998;2023-02-15T06:27:02;79.22;;;45.38;;
30299;SDS011;17110;52.602;12.998;2023-02-15T06:29:28;84.38;;;47.90;;
30299;SDS011;17110;52.602;12.998;2023-02-15T06:31:54;117.57;;;60.35;;
30299;SDS011;17110;52.602;12.998;2023-02-15T06:34:20;133.37;;;65.93;;
30299;SDS011;17110;52.602;12.998;2023-02-15T06:36:45;134.87;;;66.20;;
30299;SDS011;17110;52.602;12.998;2023-02-15T06:39:11;139.77;;;70.03;;
30299;SDS011;17110;52.602;12.998;2023-02-15T06:41:36;166.68;;;72.60;;
30299;SDS011;17110;52.602;12.998;2023-02-15T06:44:02;164.02;;;74.35;;
30299;SDS011;17110;52.602;12.998;2023-02-15T06:46:28;251.02;;;87.45;;
30299;SDS011;17110;52.602;12.998;2023-02-15T06:48:53;176.43;;;75.90;;
30299;SDS011;17110;52.602;12.998;2023-02-15T06:51:19;174.20;;;78.10;;
30299;SDS011;17110;52.602;12.998;2023-02-15T06:53:45;190.67;;;74.57;;
30299;SDS011;17110;52.602;12.998;2023-02-15T06:56:10;160.00;;;70.10;;
30299;SDS011;17110;52.602;12.998;2023-02-15T06:58:37;214.52;;;80.18;;
30299;SDS011;17110;52.602;12.998;2023-02-15T07:01:04;191.93;;;76.90;;
30299;SDS011;17110;52.602;12.998;2023-02-15T07:03:30;160.02;;;70.40;;
30299;SDS011;17110;52.602;12.998;2023-02-15T07:05:56;239.95;;;83.47;;
30299;SDS011;17110;52.602;12.998;2023-02-15T07:08:24;161.90;;;72.68;;
30299;SDS011;17110;52.602;12.998;2023-02-15T07:10:51;186.82;;;73.80;;
30299;SDS011;17110;52.602;12.998;2023-02-15T07:13:17;282.77;;;83.03;;
30299;SDS011;17110;52.602;12.998;2023-02-15T07:15:44;178.57;;;69.50;;
30299;SDS011;17110;52.602;12.998;2023-02-15T07:18:10;200.27;;;74.85;;
30299;SDS011;17110;52.602;12.998;2023-02-15T07:20:36;177.98;;;71.07;;
30299;SDS011;17110;52.602;12.998;2023-02-15T07:23:02;160.80;;;68.33;;
30299;SDS011;17110;52.602;12.998;2023-02-15T07:25:29;187.27;;;71.40;;
30299;SDS011;17110;52.602;12.998;2023-02-15T07:27:58;162.67;;;67.73;;
30299;SDS011;17110;52.602;12.998;2023-02-15T07:30:25;259.90;;;83.55;;
30299;SDS011;17110;52.602;12.998;2023-02-15T07:32:54;148.40;;;68.05;;
30299;SDS011;17110;52.602;12.998;2023-02-15T07:35:52;154.32;;;66.03;;
30299;SDS011;17110;52.602;12.998;2023-02-15T07:38:19;149.98;;;67.05;;
30299;SDS011;17110;52.602;12.998;2023-02-15T07:40:46;149.63;;;65.47;;
30299;SDS011;17110;52.602;12.998;2023-02-15T07:43:12;130.73;;;62.28;;
30299;SDS011;17110;52.602;12.998;2023-02-15T07:45:38;118.80;;;60.57;;
30299;SDS011;17110;52.602;12.998;2023-02-15T07:48:04;114.07;;;57.67;;
30299;SDS011;17110;52.602;12.998;2023-02-15T07:50:31;256.88;;;78.10;;
30299;SDS011;17110;52.602;12.998;2023-02-15T07:52:58;137.20;;;63.13;;
30299;SDS011;17110;52.602;12.998;2023-02-15T07:55:25;181.10;;;70.27;;
30299;SDS011;17110;52.602;12.998;2023-02-15T07:57:51;185.27;;;73.40;;
30299;SDS011;17110;52.602;12.998;2023-02-15T08:00:19;123.85;;;61.88;;
30299;SDS011;17110;52.602;12.998;2023-02-15T08:02:53;120.63;;;60.50;;
30299;SDS011;17110;52.602;12.998;2023-02-15T08:05:41;116.53;;;59.72;;
30299;SDS011;17110;52.602;12.998;2023-02-15T08:08:08;123.80;;;61.03;;
30299;SDS011;17110;52.602;12.998;2023-02-15T08:10:57;154.27;;;62.20;;
30299;SDS011;17110;52.602;12.998;2023-02-15T08:19:00;112.32;;;55.47;;
30299;SDS011;17110;52.602;12.998;2023-02-15T08:21:28;150.15;;;61.78;;
30299;SDS011;17110;52.602;12.998;2023-02-15T08:23:55;340.73;;;90.40;;
30299;SDS011;17110;52.602;12.998;2023-02-15T08:26:21;98.90;;;54.40;;
30299;SDS011;17110;52.602;12.998;2023-02-15T08:28:47;115.28;;;56.10;;
30299;SDS011;17110;52.602;12.998;2023-02-15T08:31:14;126.55;;;55.92;;
30299;SDS011;17110;52.602;12.998;2023-02-15T08:33:40;106.90;;;54.03;;
30299;SDS011;17110;52.602;12.998;2023-02-15T08:36:09;114.93;;;54.38;;
30299;SDS011;17110;52.602;12.998;2023-02-15T08:38:40;98.13;;;52.13;;
30299;SDS011;17110;52.602;12.998;2023-02-15T08:43:39;127.77;;;54.90;;
30299;SDS011;17110;52.602;12.998;2023-02-15T08:46:06;118.93;;;54.08;;
30299;SDS011;17110;52.602;12.998;2023-02-15T08:48:32;90.78;;;49.72;;
30299;SDS011;17110;52.602;12.998;2023-02-15T08:50:58;86.72;;;48.75;;
30299;SDS011;17110;52.602;12.998;2023-02-15T08:53:28;98.30;;;49.97;;
30299;SDS011;17110;52.602;12.998;2023-02-15T08:55:55;82.00;;;46.55;;
30299;SDS011;17110;52.602;12.998;2023-02-15T08:58:24;148.88;;;54.53;;
30299;SDS011;17110;52.602;12.998;2023-02-15T09:00:50;89.47;;;50.58;;
30299;SDS011;17110;52.602;12.998;2023-02-15T09:03:18;133.25;;;54.38;;
30299;SDS011;17110;52.602;12.998;2023-02-15T09:05:48;88.93;;;50.08;;
30299;SDS011;17110;52.602;12.998;2023-02-15T09:08:14;93.90;;;48.83;;
30299;SDS011;17110;52.602;12.998;2023-02-15T09:10:40;90.55;;;51.17;;
30299;SDS011;17110;52.602;12.998;2023-02-15T09:13:06;130.52;;;57.28;;
30299;SDS011;17110;52.602;12.998;2023-02-15T09:15:31;84.13;;;51.00;;
30299;SDS011;17110;52.602;12.998;2023-02-15T09:17:59;97.80;;;52.30;;
30299;SDS011;17110;52.602;12.998;2023-02-15T09:20:27;112.70;;;52.30;;
30299;SDS011;17110;52.602;12.998;2023-02-15T09:22:53;101.60;;;50.15;;
30299;SDS011;17110;52.602;12.998;2023-02-15T09:25:19;140.18;;;54.47;;
30299;SDS011;17110;52.602;12.998;2023-02-15T09:27:46;114.03;;;52.75;;
30299;SDS011;17110;52.602;12.998;2023-02-15T09:30:12;80.00;;;49.13;;
30299;SDS011;17110;52.602;12.998;2023-02-15T09:32:39;95.57;;;49.73;;
30299;SDS011;17110;52.602;12.998;2023-02-15T09:35:04;76.68;;;46.05;;
30299;SDS011;17110;52.602;12.998;2023-02-15T09:37:30;107.00;;;49.97;;
30299;SDS011;17110;52.602;12.998;2023-02-15T09:39:57;82.60;;;48.50;;
30299;SDS011;17110;52.602;12.998;2023-02-15T09:48:23;101.88;;;49.08;;
30299;SDS011;17110;52.602;12.998;2023-02-15T10:00:01;70.03;;;44.92;;
30299;SDS011;17110;52.602;12.998;2023-02-15T10:10:56;70.53;;;46.05;;
30299;SDS011;17110;52.602;12.998;2023-02-15T10:28:18;71.32;;;46.70;;
30299;SDS011;17110;52.602;12.998;2023-02-15T10:30:49;67.78;;;45.17;;
30299;SDS011;17110;52.602;12.998;2023-02-15T10:41:45;67.68;;;46.08;;
30299;SDS011;17110;52.602;12.998;2023-02-15T11:01:22;62.53;;;44.90;;
30299;SDS011;17110;52.602;12.998;2023-02-15T11:06:58;61.53;;;43.57;;
30299;SDS011;17110;52.602;12.998;2023-02-15T11:09:30;62.90;;;45.77;;
30299;SDS011;17110;52.602;12.998;2023-02-15T11:12:08;59.63;;;43.08;;
30299;SDS011;17110;52.602;12.998;2023-02-15T11:17:16;57.28;;;41.38;;
30299;SDS011;17110;52.602;12.998;2023-02-15T11:22:30;56.20;;;41.47;;
30299;SDS011;17110;52.602;12.998;2023-02-15T11:24:58;60.13;;;43.88;;
30299;SDS011;17110;52.602;12.998;2023-02-15T11:27:28;54.58;;;40.35;;
30299;SDS011;17110;52.602;12.998;2023-02-15T11:30:14;50.45;;;38.25;;
30299;SDS011;17110;52.602;12.998;2023-02-15T11:32:46;50.60;;;38.17;;
30299;SDS011;17110;52.602;12.998;2023-02-15T11:35:30;53.33;;;40.38;;
30299;SDS011;17110;52.602;12.998;2023-02-15T11:40:49;53.40;;;40.42;;
30299;SDS011;17110;52.602;12.998;2023-02-15T11:45:56;53.15;;;40.72;;
30299;SDS011;17110;52.602;12.998;2023-02-15T11:48:22;57.25;;;41.20;;
30299;SDS011;17110;52.602;12.998;2023-02-15T11:50:48;54.95;;;42.10;;
30299;SDS011;17110;52.602;12.998;2023-02-15T11:53:20;57.50;;;42.38;;
30299;SDS011;17110;52.602;12.998;2023-02-15T11:55:51;54.80;;;41.28;;
30299;SDS011;17110;52.602;12.998;2023-02-15T11:58:27;53.33;;;40.60;;
30299;SDS011;17110;52.602;12.998;2023-02-15T12:06:34;50.08;;;39.22;;
30299;SDS011;17110;52.602;12.998;2023-02-15T12:11:44;48.22;;;38.33;;
30299;SDS011;17110;52.602;12.998;2023-02-15T12:14:11;50.72;;;39.22;;
30299;SDS011;17110;52.602;12.998;2023-02-15T12:21:44;53.30;;;41.00;;
30299;SDS011;17110;52.602;12.998;2023-02-15T12:24:33;54.55;;;42.33;;
30299;SDS011;17110;52.602;12.998;2023-02-15T12:27:17;55.28;;;41.33;;
30299;SDS011;17110;52.602;12.998;2023-02-15T12:29:55;53.53;;;41.38;;
30299;SDS011;17110;52.602;12.998;2023-02-15T12:32:47;52.08;;;41.05;;
30299;SDS011;17110;52.602;12.998;2023-02-15T12:35:25;52.10;;;40.65;;
30299;SDS011;17110;52.602;12.998;2023-02-15T12:40:35;55.03;;;42.42;;
30299;SDS011;17110;52.602;12.998;2023-02-15T12:43:02;60.80;;;44.55;;
30299;SDS011;17110;52.602;12.998;2023-02-15T12:45:34;54.63;;;43.45;;
30299;SDS011;17110;52.602;12.998;2023-02-15T12:48:17;56.08;;;42.67;;
30299;SDS011;17110;52.602;12.998;2023-02-15T12:50:48;61.03;;;44.75;;
30299;SDS011;17110;52.602;12.998;2023-02-15T12:55:54;56.42;;;41.90;;
30299;SDS011;17110;52.602;12.998;2023-02-15T12:58:27;55.40;;;41.37;;
30299;SDS011;17110;52.602;12.998;2023-02-15T13:04:01;57.40;;;42.57;;
30299;SDS011;17110;52.602;12.998;2023-02-15T13:06:32;54.10;;;41.85;;
30299;SDS011;17110;52.602;12.998;2023-02-15T13:09:18;55.17;;;42.73;;
30299;SDS011;17110;52.602;12.998;2023-02-15T13:11:53;52.38;;;40.65;;
30299;SDS011;17110;52.602;12.998;2023-02-15T13:14:25;52.33;;;40.72;;
30299;SDS011;17110;52.602;12.998;2023-02-15T13:17:00;50.70;;;39.60;;
30299;SDS011;17110;52.602;12.998;2023-02-15T13:19:49;50.25;;;39.97;;
30299;SDS011;17110;52.602;12.998;2023-02-15T13:22:19;54.40;;;41.25;;
30299;SDS011;17110;52.602;12.998;2023-02-15T13:25:26;52.55;;;40.08;;
30299;SDS011;17110;52.602;12.998;2023-02-15T13:28:00;52.08;;;40.80;;
30299;SDS011;17110;52.602;12.998;2023-02-15T13:30:34;52.47;;;40.15;;
30299;SDS011;17110;52.602;12.998;2023-02-15T13:33:25;53.90;;;41.83;;
30299;SDS011;17110;52.602;12.998;2023-02-15T13:44:29;55.55;;;42.90;;
30299;SDS011;17110;52.602;12.998;2023-02-15T13:47:22;58.30;;;43.90;;
30299;SDS011;17110;52.602;12.998;2023-02-15T13:56:27;51.33;;;40.47;;
30299;SDS011;17110;52.602;12.998;2023-02-15T13:59:07;51.70;;;39.97;;
30299;SDS011;17110;52.602;12.998;2023-02-15T14:01:55;48.00;;;38.47;;
30299;SDS011;17110;52.602;12.998;2023-02-15T14:07:40;52.00;;;40.22;;
30299;SDS011;17110;52.602;12.998;2023-02-15T14:32:08;47.77;;;37.87;;
30299;SDS011;17110;52.602;12.998;2023-02-15T14:34:52;46.88;;;38.67;;
30299;SDS011;17110;52.602;12.998;2023-02-15T14:46:20;52.03;;;39.70;;
30299;SDS011;17110;52.602;12.998;2023-02-15T14:49:15;50.78;;;38.95;;
30299;SDS011;17110;52.602;12.998;2023-02-15T14:52:13;54.40;;;40.70;;
30299;SDS011;17110;52.602;12.998;2023-02-15T15:05:14;49.83;;;38.47;;
30299;SDS011;17110;52.602;12.998;2023-02-15T15:08:05;48.55;;;38.67;;
30299;SDS011;17110;52.602;12.998;2023-02-15T15:10:53;51.13;;;39.85;;
30299;SDS011;17110;52.602;12.998;2023-02-15T15:16:24;50.47;;;38.72;;
30299;SDS011;17110;52.602;12.998;2023-02-15T15:18:50;46.92;;;38.15;;
30299;SDS011;17110;52.602;12.998;2023-02-15T15:35:22;51.00;;;39.40;;
30299;SDS011;17110;52.602;12.998;2023-02-15T15:43:47;51.60;;;40.17;;
30299;SDS011;17110;52.602;12.998;2023-02-15T15:49:19;55.45;;;42.55;;
30299;SDS011;17110;52.602;12.998;2023-02-15T15:51:49;54.80;;;41.95;;
30299;SDS011;17110;52.602;12.998;2023-02-15T15:54:21;53.35;;;40.85;;
30299;SDS011;17110;52.602;12.998;2023-02-15T15:56:54;56.73;;;43.40;;
30299;SDS011;17110;52.602;12.998;2023-02-15T15:59:31;60.35;;;43.15;;
30299;SDS011;17110;52.602;12.998;2023-02-15T16:02:05;56.65;;;43.25;;
30299;SDS011;17110;52.602;12.998;2023-02-15T16:04:35;61.00;;;45.03;;
30299;SDS011;17110;52.602;12.998;2023-02-15T16:09:55;70.50;;;52.33;;
30299;SDS011;17110;52.602;12.998;2023-02-15T16:12:31;72.77;;;52.07;;
30299;SDS011;17110;52.602;12.998;2023-02-15T16:15:43;72.87;;;53.10;;
30299;SDS011;17110;52.602;12.998;2023-02-15T16:18:03;74.93;;;53.67;;
30299;SDS011;17110;52.602;12.998;2023-02-15T16:20:31;77.00;;;54.07;;
30299;SDS011;17110;52.602;12.998;2023-02-15T16:23:16;70.43;;;50.83;;
30299;SDS011;17110;52.602;12.998;2023-02-15T16:26:31;77.85;;;53.45;;
30299;SDS011;17110;52.602;12.998;2023-02-15T16:29:23;76.25;;;52.67;;
30299;SDS011;17110;52.602;12.998;2023-02-15T16:31:59;73.13;;;51.27;;
30299;SDS011;17110;52.602;12.998;2023-02-15T16:34:31;72.40;;;50.75;;
30299;SDS011;17110;52.602;12.998;2023-02-15T16:37:18;78.38;;;55.50;;
30299;SDS011;17110;52.602;12.998;2023-02-15T16:39:52;85.10;;;58.72;;
30299;SDS011;17110;52.602;12.998;2023-02-15T16:42:23;87.45;;;58.83;;
30299;SDS011;17110;52.602;12.998;2023-02-15T16:44:57;84.20;;;57.75;;
30299;SDS011;17110;52.602;12.998;2023-02-15T16:47:38;88.15;;;57.92;;
30299;SDS011;17110;52.602;12.998;2023-02-15T16:50:16;92.75;;;60.80;;
30299;SDS011;17110;52.602;12.998;2023-02-15T16:52:47;80.18;;;55.45;;
30299;SDS011;17110;52.602;12.998;2023-02-15T16:55:25;76.80;;;53.88;;
30299;SDS011;17110;52.602;12.998;2023-02-15T16:57:58;80.93;;;54.75;;
30299;SDS011;17110;52.602;12.998;2023-02-15T17:00:38;75.50;;;52.75;;
30299;SDS011;17110;52.602;12.998;2023-02-15T17:08:30;84.53;;;57.33;;
30299;SDS011;17110;52.602;12.998;2023-02-15T17:11:21;88.43;;;58.45;;
30299;SDS011;17110;52.602;12.998;2023-02-15T17:16:40;86.68;;;57.53;;
30299;SDS011;17110;52.602;12.998;2023-02-15T17:19:22;91.45;;;58.10;;
30299;SDS011;17110;52.602;12.998;2023-02-15T17:21:54;85.35;;;56.13;;
30299;SDS011;17110;52.602;12.998;2023-02-15T17:24:45;86.07;;;55.15;;
30299;SDS011;17110;52.602;12.998;2023-02-15T17:27:23;75.47;;;51.30;;
30299;SDS011;17110;52.602;12.998;2023-02-15T17:30:13;82.53;;;54.20;;
30299;SDS011;17110;52.602;12.998;2023-02-15T17:32:56;76.53;;;50.78;;
30299;SDS011;17110;52.602;12.998;2023-02-15T17:35:25;78.30;;;50.70;;
30299;SDS011;17110;52.602;12.998;2023-02-15T17:40:50;81.28;;;52.30;;
30299;SDS011;17110;52.602;12.998;2023-02-15T17:43:16;85.65;;;53.47;;
30299;SDS011;17110;52.602;12.998;2023-02-15T17:45:51;78.97;;;51.07;;
30299;SDS011;17110;52.602;12.998;2023-02-15T17:48:21;77.25;;;51.08;;
30299;SDS011;17110;52.602;12.998;2023-02-15T17:50:56;72.00;;;49.60;;
30299;SDS011;17110;52.602;12.998;2023-02-15T17:53:23;74.10;;;48.63;;
30299;SDS011;17110;52.602;12.998;2023-02-15T17:55:50;71.90;;;47.58;;
30299;SDS011;17110;52.602;12.998;2023-02-15T17:58:17;66.40;;;46.20;;
30299;SDS011;17110;52.602;12.998;2023-02-15T18:00:45;67.75;;;45.60;;
30299;SDS011;17110;52.602;12.998;2023-02-15T18:03:45;66.90;;;46.20;;
30299;SDS011;17110;52.602;12.998;2023-02-15T18:06:32;64.68;;;45.75;;
30299;SDS011;17110;52.602;12.998;2023-02-15T18:09:19;65.90;;;45.78;;
30299;SDS011;17110;52.602;12.998;2023-02-15T18:12:22;86.55;;;63.10;;
30299;SDS011;17110;52.602;12.998;2023-02-15T18:14:59;98.63;;;72.43;;
30299;SDS011;17110;52.602;12.998;2023-02-15T18:17:29;114.65;;;82.05;;
30299;SDS011;17110;52.602;12.998;2023-02-15T18:20:02;101.03;;;72.38;;
30299;SDS011;17110;52.602;12.998;2023-02-15T18:22:30;104.22;;;75.53;;
30299;SDS011;17110;52.602;12.998;2023-02-15T18:24:57;90.63;;;61.17;;
30299;SDS011;17110;52.602;12.998;2023-02-15T18:27:24;87.32;;;58.28;;
30299;SDS011;17110;52.602;12.998;2023-02-15T18:29:57;84.32;;;59.92;;
30299;SDS011;17110;52.602;12.998;2023-02-15T18:32:28;77.28;;;53.38;;
30299;SDS011;17110;52.602;12.998;2023-02-15T18:35:03;85.80;;;58.08;;
30299;SDS011;17110;52.602;12.998;2023-02-15T18:37:40;77.32;;;52.80;;
30299;SDS011;17110;52.602;12.998;2023-02-15T18:40:12;72.60;;;49.65;;
30299;SDS011;17110;52.602;12.998;2023-02-15T18:42:48;76.38;;;52.67;;